Time;durP1;ratioP1;P1;durP2;ratioP2;P2;SDS_P1;SDS_P2;PMS_P1;PMS_P2;Temp;Humidity;BMP_temperature;BMP_pressure;BME280_temperature;BME280_humidity;BME280_pressure;Samples;Min_cycle;Max_cycle;Signal;HPM_P1;HPM_P2
2024/01/28 00:00:53;;;;;;;19.08;6.30;;;;;;;17.69;100.00;102968.69;4996573;28;20077;-45
2024/01/28 00:03:20;;;;;;;16.38;5.90;;;;;;;17.67;100.00;102966.28;4994810;28;20062;-45
2024/01/28 00:05:47;;;;;;;16.00;5.47;;;;;;;17.66;100.00;102963.88;4995512;28;20042;-44
2024/01/28 00:08:14;;;;;;;18.65;6.38;;;;;;;17.67;100.00;102962.66;4995101;28;20050;-46
2024/01/28 00:10:41;;;;;;;16.20;5.50;;;;;;;17.69;100.00;102963.03;4990969;28;20050;-44
2024/01/28 00:13:08;;;;;;;14.07;5.32;;;;;;;17.68;100.00;102961.44;4988755;28;20145;-45
2024/01/28 00:15:34;;;;;;;18.33;5.70;;;;;;;17.67;100.00;102952.22;4994404;28;20509;-43
2024/01/28 00:18:01;;;;;;;15.50;5.45;;;;;;;17.66;100.00;102955.44;4992416;28;20487;-45
2024/01/28 00:20:28;;;;;;;15.18;5.93;;;;;;;17.67;100.00;102955.03;4997044;28;20046;-44
2024/01/28 00:22:55;;;;;;;16.67;5.80;;;;;;;17.68;100.00;102950.97;4998078;28;20046;-44
2024/01/28 00:25:21;;;;;;;15.18;5.60;;;;;;;17.69;100.00;102949.78;4993754;28;20054;-47
2024/01/28 00:27:48;;;;;;;14.07;5.50;;;;;;;17.70;100.00;102944.94;4999176;28;20050;-45
2024/01/28 00:30:14;;;;;;;13.85;5.25;;;;;;;17.70;100.00;102945.75;4995376;28;20046;-44
2024/01/28 00:32:41;;;;;;;15.35;5.80;;;;;;;17.71;100.00;102949.34;4991762;28;20302;-44
2024/01/28 00:35:08;;;;;;;14.35;5.00;;;;;;;17.67;100.00;102940.94;4999544;28;20583;-45
2024/01/28 00:37:35;;;;;;;13.48;5.05;;;;;;;17.68;100.00;102931.28;4995244;28;20057;-44
2024/01/28 00:40:03;;;;;;;13.95;5.13;;;;;;;17.65;100.00;102929.31;4998033;28;20073;-45
2024/01/28 00:42:30;;;;;;;13.25;5.10;;;;;;;17.65;100.00;102922.91;4996844;28;20058;-47
2024/01/28 00:44:57;;;;;;;12.65;5.07;;;;;;;17.70;100.00;102926.06;5000512;28;20050;-45
2024/01/28 00:47:23;;;;;;;14.05;5.20;;;;;;;17.69;100.00;102926.47;4997916;28;20570;-45
2024/01/28 00:49:50;;;;;;;16.10;5.60;;;;;;;17.69;100.00;102920.84;4995231;28;20094;-46
2024/01/28 00:52:17;;;;;;;16.85;6.00;;;;;;;17.68;100.00;102922.84;4994685;28;20153;-43
2024/01/28 00:54:43;;;;;;;14.18;5.30;;;;;;;17.69;100.00;102930.09;4997318;28;20050;-45
2024/01/28 00:57:10;;;;;;;12.82;4.70;;;;;;;17.67;100.00;102924.06;4993860;28;20053;-45
2024/01/28 00:59:37;;;;;;;13.85;5.45;;;;;;;17.67;100.00;102923.25;4995019;28;20100;-43
2024/01/28 01:02:04;;;;;;;13.35;4.70;;;;;;;17.66;100.00;102924.50;4991432;28;20131;-43
2024/01/28 01:04:30;;;;;;;14.52;5.93;;;;;;;17.65;100.00;102922.91;4994718;28;20069;-44
2024/01/28 01:06:57;;;;;;;13.52;4.97;;;;;;;17.64;100.00;102922.09;4995385;28;20057;-44
2024/01/28 01:09:25;;;;;;;14.65;5.85;;;;;;;17.64;100.00;102918.47;4993921;28;20055;-45
2024/01/28 01:11:52;;;;;;;15.00;4.80;;;;;;;17.65;100.00;102917.25;4998530;28;20517;-43
2024/01/28 01:14:18;;;;;;;14.93;5.47;;;;;;;17.68;100.00;102922.06;4993332;28;20050;-45
2024/01/28 01:16:45;;;;;;;11.98;4.93;;;;;;;17.69;100.00;102929.28;4993325;28;20153;-45
2024/01/28 01:19:11;;;;;;;11.75;4.68;;;;;;;17.68;100.00;102922.84;4997625;28;20049;-44
2024/01/28 01:21:38;;;;;;;12.82;5.40;;;;;;;17.69;100.00;102926.47;4993200;28;20050;-44
2024/01/28 01:24:05;;;;;;;12.30;5.03;;;;;;;17.68;100.00;102925.66;4994729;28;20048;-43
2024/01/28 01:26:31;;;;;;;15.90;5.05;;;;;;;17.68;100.00;102917.22;4994952;28;20427;-44
2024/01/28 01:28:58;;;;;;;15.25;5.45;;;;;;;17.67;100.00;102912.00;4996017;28;20100;-44
2024/01/28 01:31:24;;;;;;;11.98;5.13;;;;;;;17.66;100.00;102916.03;4985273;28;20054;-45
2024/01/28 01:33:51;;;;;;;15.90;5.68;;;;;;;17.67;100.00;102912.00;4996586;28;20129;-45
2024/01/28 01:36:19;;;;;;;12.73;5.10;;;;;;;17.65;100.00;102909.59;4997784;28;20088;-42
2024/01/28 01:38:46;;;;;;;14.27;5.07;;;;;;;17.66;100.00;102914.03;4994668;28;20062;-41
2024/01/28 01:41:12;;;;;;;13.60;5.03;;;;;;;17.67;100.00;102914.81;4995989;28;20050;-44
2024/01/28 01:43:39;;;;;;;11.57;4.80;;;;;;;17.66;100.00;102896.34;4994774;28;20101;-44
2024/01/28 01:46:10;;;;;;;13.38;5.00;;;;;;;17.63;100.00;102897.19;4999512;28;20050;-43
2024/01/28 01:48:37;;;;;;;15.38;5.10;;;;;;;17.62;100.00;102893.56;4985288;28;20482;-45
2024/01/28 01:51:06;;;;;;;14.10;5.10;;;;;;;17.65;100.00;102894.75;5005043;28;20038;-44
2024/01/28 01:53:34;;;;;;;13.73;5.20;;;;;;;17.63;100.00;102900.00;4989651;28;20065;-46
2024/01/28 01:56:02;;;;;;;10.63;4.50;;;;;;;17.64;100.00;102895.97;4996271;28;20077;-46
2024/01/28 01:58:29;;;;;;;12.77;5.20;;;;;;;17.63;100.00;102902.81;4993107;28;20096;-45
2024/01/28 02:00:56;;;;;;;12.18;4.50;;;;;;;17.59;100.00;102902.84;4993306;28;20046;-46
2024/01/28 02:03:23;;;;;;;13.00;4.68;;;;;;;17.66;100.00;102888.72;4992456;28;20050;-45
2024/01/28 02:05:50;;;;;;;10.65;4.47;;;;;;;17.69;100.00;102889.91;4993567;28;20050;-46
2024/01/28 02:08:17;;;;;;;10.48;4.45;;;;;;;17.68;100.00;102888.31;4992987;28;20042;-44
2024/01/28 02:10:45;;;;;;;11.65;4.72;;;;;;;17.68;100.00;102888.31;4993199;28;20505;-44
2024/01/28 02:13:11;;;;;;;13.68;4.93;;;;;;;17.67;100.00;102890.31;4993507;28;20061;-44
2024/01/28 02:15:38;;;;;;;15.07;5.22;;;;;;;17.66;100.00;102890.72;4993268;28;20046;-45
2024/01/28 02:18:05;;;;;;;18.63;5.03;;;;;;;17.62;100.00;102879.50;4993068;28;20061;-44
2024/01/28 02:20:32;;;;;;;11.88;4.30;;;;;;;17.62;100.00;102873.09;4986456;28;20501;-45
2024/01/28 02:22:59;;;;;;;15.25;5.10;;;;;;;17.63;100.00;102875.47;4992538;28;20100;-45
2024/01/28 02:25:25;;;;;;;15.00;4.90;;;;;;;17.62;100.00;102871.06;4992811;28;20116;-46
2024/01/28 02:27:52;;;;;;;13.77;5.05;;;;;;;17.63;100.00;102874.69;4992942;28;20137;-44
2024/01/28 02:30:18;;;;;;;10.40;4.38;;;;;;;17.66;100.00;102868.22;4995848;28;20050;-45
2024/01/28 02:32:51;;;;;;;12.18;4.55;;;;;;;17.69;100.00;102870.22;4993325;28;20046;-47
2024/01/28 02:35:18;;;;;;;13.48;4.93;;;;;;;17.68;100.00;102868.63;4990668;28;20133;-47
2024/01/28 02:37:45;;;;;;;12.77;4.60;;;;;;;17.68;100.00;102865.81;4992489;28;20428;-45
2024/01/28 02:40:12;;;;;;;11.95;4.40;;;;;;;17.68;100.00;102871.44;4990738;28;20099;-48
2024/01/28 02:42:39;;;;;;;12.00;4.40;;;;;;;17.67;100.00;102869.81;4992822;28;20054;-46
2024/01/28 02:45:07;;;;;;;14.48;4.38;;;;;;;17.68;100.00;102871.44;4992836;28;20175;-45
2024/01/28 02:47:33;;;;;;;11.95;4.32;;;;;;;17.67;100.00;102864.19;4994967;28;20050;-46
2024/01/28 02:50:00;;;;;;;11.05;4.22;;;;;;;17.67;100.00;102864.19;4992667;28;20077;-44
2024/01/28 02:52:26;;;;;;;14.05;5.20;;;;;;;17.68;100.00;102860.97;4992001;28;20535;-44
2024/01/28 02:54:53;;;;;;;9.90;4.20;;;;;;;17.66;100.00;102854.97;4992835;28;20050;-44
2024/01/28 02:57:20;;;;;;;15.18;4.47;;;;;;;17.66;100.00;102849.34;4992093;28;20050;-44
2024/01/28 02:59:46;;;;;;;14.90;4.43;;;;;;;17.66;100.00;102849.34;4992492;28;20612;-43
2024/01/28 03:02:13;;;;;;;12.75;4.60;;;;;;;17.65;100.00;102841.31;4991733;28;20078;-42
2024/01/28 03:04:39;;;;;;;13.13;4.60;;;;;;;17.62;100.00;102842.13;4989410;28;20042;-46
2024/01/28 03:07:07;;;;;;;15.50;4.28;;;;;;;17.64;100.00;102834.88;4991279;28;20050;-44
2024/01/28 03:09:33;;;;;;;12.15;4.72;;;;;;;17.65;100.00;102828.03;4992280;28;20047;-44
2024/01/28 03:12:00;;;;;;;13.45;4.50;;;;;;;17.65;100.00;102839.28;4992218;28;20042;-43
2024/01/28 03:14:27;;;;;;;10.60;4.10;;;;;;;17.65;100.00;102838.50;4992308;28;20077;-47
2024/01/28 03:16:53;;;;;;;11.05;3.97;;;;;;;17.62;100.00;102840.09;4990389;28;20050;-46
2024/01/28 03:19:20;;;;;;;14.18;4.40;;;;;;;17.64;100.00;102842.50;4987072;28;20050;-44
2024/01/28 03:21:47;;;;;;;13.77;4.30;;;;;;;17.61;100.00;102837.75;4998132;28;20058;-44
2024/01/28 03:24:14;;;;;;;14.13;5.10;;;;;;;17.60;100.00;102831.31;4992060;28;20054;-45
2024/01/28 03:26:41;;;;;;;11.05;4.20;;;;;;;17.60;100.00;102819.25;4991930;28;20050;-43
2024/01/28 03:29:07;;;;;;;12.35;4.50;;;;;;;17.58;100.00;102825.28;4991827;28;20053;-44
2024/01/28 03:31:34;;;;;;;11.18;4.70;;;;;;;17.59;100.00;102824.09;4990995;28;20065;-43
2024/01/28 03:34:00;;;;;;;13.30;5.03;;;;;;;17.58;100.00;102813.25;4988515;28;20057;-44
2024/01/28 03:36:27;;;;;;;11.07;3.78;;;;;;;17.56;100.00;102812.84;4989093;28;20425;-44
2024/01/28 03:38:54;;;;;;;9.90;3.97;;;;;;;17.55;100.00;102809.22;5003396;28;20134;-45
2024/01/28 03:41:21;;;;;;;11.85;3.92;;;;;;;17.55;100.00;102811.28;4991710;28;20062;-45
2024/01/28 03:43:48;;;;;;;8.43;3.75;;;;;;;17.53;100.00;102822.13;4991613;28;20089;-43
2024/01/28 03:46:14;;;;;;;10.85;4.40;;;;;;;17.54;100.00;102824.53;4990108;28;20046;-44
2024/01/28 03:48:41;;;;;;;10.23;4.18;;;;;;;17.53;100.00;102822.13;4990694;28;20077;-45
2024/01/28 03:51:08;;;;;;;9.63;3.78;;;;;;;17.51;100.00;102816.91;4991034;28;20121;-45
2024/01/28 03:53:34;;;;;;;9.23;3.83;;;;;;;17.53;100.00;102822.13;4991525;28;20058;-45
2024/01/28 03:56:01;;;;;;;13.98;4.20;;;;;;;17.50;100.00;102811.69;4997797;28;20560;-43
2024/01/28 03:58:27;;;;;;;11.07;4.07;;;;;;;17.49;100.00;102813.72;4991142;28;20086;-44
2024/01/28 04:00:54;;;;;;;9.73;3.70;;;;;;;17.50;100.00;102803.25;4989905;28;20475;-46
2024/01/28 04:03:21;;;;;;;11.63;4.00;;;;;;;17.50;100.00;102803.25;4995465;28;20133;-43
2024/01/28 04:05:47;;;;;;;8.98;3.55;;;;;;;17.48;100.00;102808.53;4991449;28;20046;-43
2024/01/28 04:08:14;;;;;;;10.95;3.78;;;;;;;17.49;100.00;102805.31;4990930;28;20065;-42
2024/01/28 04:10:40;;;;;;;9.98;3.85;;;;;;;17.47;100.00;102813.34;4991263;28;20038;-44
2024/01/28 04:13:07;;;;;;;11.90;4.20;;;;;;;17.48;100.00;102798.06;4997648;28;20173;-45
2024/01/28 04:15:34;;;;;;;9.60;3.80;;;;;;;17.48;100.00;102794.47;4989989;28;20512;-45
2024/01/28 04:18:00;;;;;;;11.88;4.07;;;;;;;17.45;100.00;102793.25;4989986;28;20078;-44
2024/01/28 04:20:27;;;;;;;11.48;3.75;;;;;;;17.45;100.00;102790.44;4990606;28;20089;-46
2024/01/28 04:22:54;;;;;;;10.77;3.85;;;;;;;17.45;100.00;102784.03;4990999;28;20054;-45
2024/01/28 04:25:21;;;;;;;10.93;3.65;;;;;;;17.43;100.00;102782.41;4991052;28;20125;-45
2024/01/28 04:27:47;;;;;;;8.68;3.67;;;;;;;17.44;100.00;102780.41;4989966;28;20077;-43
2024/01/28 04:30:14;;;;;;;12.05;3.80;;;;;;;17.45;100.00;102772.78;4989574;28;20133;-41
2024/01/28 04:32:42;;;;;;;10.52;4.20;;;;;;;17.45;100.00;102778.41;4986548;28;20051;-44
2024/01/28 04:35:14;;;;;;;10.18;3.88;;;;;;;17.43;100.00;102771.19;4989190;28;20090;-42
2024/01/28 04:37:41;;;;;;;8.10;3.65;;;;;;;17.42;100.00;102769.59;4986959;28;20046;-42
2024/01/28 04:40:08;;;;;;;12.68;3.80;;;;;;;17.41;100.00;102767.19;4988885;28;20046;-45
2024/01/28 04:42:35;;;;;;;13.50;3.80;;;;;;;17.42;100.00;102765.19;4988575;28;20046;-43
2024/01/28 04:45:02;;;;;;;9.07;4.45;;;;;;;17.42;100.00;102763.19;4988203;28;20128;-43
2024/01/28 04:47:29;;;;;;;10.30;3.92;;;;;;;17.38;100.00;102754.75;4988428;28;20126;-47
2024/01/28 04:49:56;;;;;;;12.57;3.88;;;;;;;17.38;100.00;102751.97;4986248;28;20781;-44
2024/01/28 04:52:23;;;;;;;12.43;4.15;;;;;;;17.38;100.00;102750.38;4991098;28;20132;-43
2024/01/28 04:54:49;;;;;;;11.07;4.20;;;;;;;17.38;100.00;102751.16;4990680;28;20158;-43
2024/01/28 04:57:16;;;;;;;9.52;4.00;;;;;;;17.36;100.00;102743.13;4988380;28;20109;-40
2024/01/28 04:59:43;;;;;;;10.20;3.97;;;;;;;17.36;100.00;102736.72;4987799;28;20058;-44
2024/01/28 05:02:09;;;;;;;9.88;3.63;;;;;;;17.38;100.00;102734.28;4988569;28;20054;-47
2024/01/28 05:04:36;;;;;;;10.93;3.85;;;;;;;17.35;100.00;102723.84;4990759;28;20097;-44
2024/01/28 05:07:02;;;;;;;9.50;4.00;;;;;;;17.37;100.00;102724.25;4987001;28;20046;-44
2024/01/28 05:09:29;;;;;;;9.35;3.60;;;;;;;17.35;100.00;102726.66;4988382;28;20069;-44
2024/01/28 05:11:55;;;;;;;10.05;3.67;;;;;;;17.35;100.00;102719.03;4987512;28;20053;-42
2024/01/28 05:14:22;;;;;;;9.00;3.53;;;;;;;17.35;100.00;102721.03;4989084;28;20050;-43
2024/01/28 05:16:49;;;;;;;12.10;4.07;;;;;;;17.33;100.00;102715.88;4987374;28;20066;-43
2024/01/28 05:19:16;;;;;;;11.27;3.95;;;;;;;17.34;100.00;102711.03;4988645;28;20054;-44
2024/01/28 05:21:43;;;;;;;7.70;3.35;;;;;;;17.32;100.00;102711.44;4990162;28;20046;-43
2024/01/28 05:24:09;;;;;;;12.00;4.18;;;;;;;17.31;100.00;102712.66;4989398;28;20054;-44
2024/01/28 05:26:37;;;;;;;8.35;3.30;;;;;;;17.31;100.00;102715.47;4989871;28;20047;-44
2024/01/28 05:29:05;;;;;;;10.73;3.65;;;;;;;17.31;100.00;102712.66;4991995;28;20046;-43
2024/01/28 05:31:32;;;;;;;9.00;3.75;;;;;;;17.28;100.00;102713.50;4993663;28;20046;-45
2024/01/28 05:34:00;;;;;;;12.20;3.58;;;;;;;17.30;100.00;102708.25;4993084;28;20050;-42
2024/01/28 05:36:29;;;;;;;9.98;3.65;;;;;;;17.31;100.00;102706.22;4993876;28;20054;-45
2024/01/28 05:38:56;;;;;;;7.80;3.60;;;;;;;17.31;100.00;102712.66;4991153;28;20081;-44
2024/01/28 05:41:22;;;;;;;8.40;3.55;;;;;;;17.31;100.00;102703.41;4990406;28;20137;-45
2024/01/28 05:43:49;;;;;;;9.90;3.70;;;;;;;17.29;100.00;102700.25;4991336;28;20129;-42
2024/01/28 05:46:15;;;;;;;10.32;3.80;;;;;;;17.30;100.00;102701.84;4991483;28;20755;-44
2024/01/28 05:48:42;;;;;;;11.00;3.83;;;;;;;17.30;100.00;102697.03;4991257;28;20804;-44
2024/01/28 05:51:09;;;;;;;8.40;3.70;;;;;;;17.28;100.00;102695.81;4991545;28;20095;-44
2024/01/28 05:53:35;;;;;;;8.82;3.38;;;;;;;17.30;100.00;102705.44;4992401;28;20133;-44
2024/01/28 05:56:03;;;;;;;8.90;3.83;;;;;;;17.29;100.00;102703.84;4993535;28;20051;-43
2024/01/28 05:58:30;;;;;;;9.13;3.63;;;;;;;17.28;100.00;102699.44;4990597;28;20053;-44
2024/01/28 06:01:01;;;;;;;11.48;3.83;;;;;;;17.27;100.00;102697.03;4991451;28;20066;-42
2024/01/28 06:03:28;;;;;;;8.90;3.40;;;;;;;17.27;100.00;102694.22;4990542;28;20061;-44
2024/01/28 06:05:54;;;;;;;9.35;4.07;;;;;;;17.26;100.00;102695.44;4992887;28;20428;-44
2024/01/28 06:08:21;;;;;;;10.52;3.53;;;;;;;17.26;100.00;102703.88;4993040;28;20151;-43
2024/01/28 06:10:47;;;;;;;7.63;3.67;;;;;;;17.26;100.00;102696.22;4991640;28;20060;-42
2024/01/28 06:13:14;;;;;;;8.43;3.33;;;;;;;17.23;100.00;102694.28;4992354;28;20105;-45
2024/01/28 06:15:41;;;;;;;7.10;3.45;;;;;;;17.22;100.00;102694.69;4990727;28;20050;-44
2024/01/28 06:18:07;;;;;;;6.95;3.40;;;;;;;17.25;100.00;102693.88;4990113;28;20050;-43
2024/01/28 06:20:35;;;;;;;10.98;3.70;;;;;;;17.25;100.00;102696.69;4992017;28;20052;-43
2024/01/28 06:23:02;;;;;;;10.55;3.95;;;;;;;17.24;100.00;102689.44;4993299;28;20101;-42
2024/01/28 06:25:29;;;;;;;9.43;3.28;;;;;;;17.23;100.00;102694.28;4993149;28;20061;-45
2024/01/28 06:27:56;;;;;;;8.35;3.40;;;;;;;17.24;100.00;102701.50;4991382;28;20054;-43
2024/01/28 06:30:22;;;;;;;8.38;3.22;;;;;;;17.23;100.00;102696.28;4992610;28;20058;-47
2024/01/28 06:32:49;;;;;;;7.55;3.30;;;;;;;17.22;100.00;102698.28;4993431;28;20046;-46
2024/01/28 06:35:17;;;;;;;9.77;4.00;;;;;;;17.22;100.00;102698.28;4992415;28;20042;-42
2024/01/28 06:37:44;;;;;;;8.25;3.25;;;;;;;17.22;100.00;102692.66;4990240;28;20054;-44
2024/01/28 06:40:11;;;;;;;10.55;3.70;;;;;;;17.22;100.00;102694.69;4989985;28;20417;-44
2024/01/28 06:42:37;;;;;;;8.35;3.40;;;;;;;17.21;100.00;102690.25;4991464;28;20207;-45
2024/01/28 06:45:07;;;;;;;7.82;3.58;;;;;;;17.20;100.00;102697.91;4990001;28;20058;-45
2024/01/28 06:47:34;;;;;;;7.97;3.13;;;;;;;17.20;100.00;102686.66;4988657;28;20074;-42
2024/01/28 06:50:01;;;;;;;9.02;3.75;;;;;;;17.22;100.00;102691.88;4988839;28;20057;-43
2024/01/28 06:52:29;;;;;;;8.77;3.50;;;;;;;17.20;100.00;102691.50;4990394;28;20058;-44
2024/01/28 06:54:55;;;;;;;8.30;3.38;;;;;;;17.22;100.00;102698.28;4989710;28;20382;-45
2024/01/28 06:57:22;;;;;;;8.35;3.40;;;;;;;17.25;100.00;102703.06;4993601;28;20070;-44
2024/01/28 06:59:49;;;;;;;6.78;3.03;;;;;;;17.26;100.00;102698.25;4990156;28;20050;-44
2024/01/28 07:02:16;;;;;;;8.07;3.25;;;;;;;17.25;100.00;102696.69;4993322;28;20445;-44
2024/01/28 07:04:43;;;;;;;6.38;3.10;;;;;;;17.25;100.00;102703.06;4995734;28;20100;-44
2024/01/28 07:07:09;;;;;;;7.68;3.33;;;;;;;17.24;100.00;102712.72;4995538;28;20042;-46
2024/01/28 07:09:36;;;;;;;7.65;3.10;;;;;;;17.25;100.00;102703.06;4992184;28;20050;-45
2024/01/28 07:12:03;;;;;;;6.88;3.13;;;;;;;17.26;100.00;102703.88;4992770;28;20444;-45
2024/01/28 07:14:30;;;;;;;8.55;3.40;;;;;;;17.25;100.00;102696.69;4994318;28;20046;-43
2024/01/28 07:16:57;;;;;;;8.70;3.85;;;;;;;17.25;100.00;102697.44;4990814;28;20093;-43
2024/01/28 07:19:23;;;;;;;8.75;2.97;;;;;;;17.26;100.00;102695.44;4991393;28;20047;-44
2024/01/28 07:21:51;;;;;;;6.78;2.88;;;;;;;17.25;100.00;102688.25;4991986;28;20046;-42
2024/01/28 07:24:18;;;;;;;5.57;2.83;;;;;;;17.25;100.00;102688.25;4995029;28;21756;-46
2024/01/28 07:26:46;;;;;;;6.95;2.92;;;;;;;17.26;100.00;102681.41;4994084;28;20444;-43
2024/01/28 07:29:12;;;;;;;8.10;3.35;;;;;;;17.25;100.00;102668.56;4992478;28;20479;-42
2024/01/28 07:31:40;;;;;;;8.80;3.58;;;;;;;17.24;100.00;102672.56;4986948;28;20038;-42
2024/01/28 07:34:06;;;;;;;7.78;3.05;;;;;;;17.18;100.00;102669.41;4988807;28;20066;-42
2024/01/28 07:36:33;;;;;;;6.65;2.88;;;;;;;17.24;100.00;102664.13;4987935;28;20575;-41
2024/01/28 07:39:06;;;;;;;9.98;3.00;;;;;;;17.23;100.00;102668.97;4988743;28;20058;-45
2024/01/28 07:41:35;;;;;;;7.97;3.10;;;;;;;17.22;100.00;102663.78;4993371;28;20073;-42
2024/01/28 07:44:02;;;;;;;5.85;2.67;;;;;;;17.22;100.00;102658.94;4989911;28;20042;-44
2024/01/28 07:46:29;;;;;;;7.90;3.05;;;;;;;17.22;100.00;102660.97;4991019;28;20058;-42
2024/01/28 07:48:55;;;;;;;8.57;3.13;;;;;;;17.20;100.00;102658.56;4985562;28;20050;-42
2024/01/28 07:51:22;;;;;;;8.48;3.22;;;;;;;17.21;100.00;102656.53;4990198;28;20129;-43
2024/01/28 07:53:49;;;;;;;8.02;3.25;;;;;;;17.21;100.00;102653.72;4990678;28;20042;-44
2024/01/28 07:56:16;;;;;;;8.32;3.00;;;;;;;17.20;100.00;102650.13;4993985;28;20517;-40
2024/01/28 07:58:42;;;;;;;8.07;2.90;;;;;;;17.20;100.00;102649.31;4988552;28;20137;-42
2024/01/28 08:01:09;;;;;;;5.63;2.58;;;;;;;17.19;100.00;102642.13;4988718;28;20081;-41
2024/01/28 08:03:35;;;;;;;8.20;2.95;;;;;;;17.12;100.00;102647.81;4989432;28;20146;-41
2024/01/28 08:06:04;;;;;;;8.95;2.95;;;;;;;17.08;100.00;102636.56;4990784;28;20178;-42
2024/01/28 08:08:33;;;;;;;9.32;3.78;;;;;;;17.07;100.00;102634.97;4988039;28;20050;-42
2024/01/28 08:10:59;;;;;;;13.73;5.28;;;;;;;15.13;100.00;102627.25;4988423;28;20078;-45
2024/01/28 08:13:26;;;;;;;14.02;5.55;;;;;;;14.39;100.00;102618.88;4990920;28;20045;-43
2024/01/28 08:15:57;;;;;;;14.80;5.50;;;;;;;14.16;100.00;102622.03;4990967;28;20046;-43
2024/01/28 08:18:24;;;;;;;13.65;5.53;;;;;;;14.20;100.00;102624.84;4990368;28;20561;-43
2024/01/28 08:20:51;;;;;;;17.83;6.50;;;;;;;14.83;100.00;102628.50;4992612;28;20084;-43
2024/01/28 08:23:17;;;;;;;18.95;10.23;;;;;;;13.99;91.72;102630.38;4990126;28;20069;-43
2024/01/28 08:25:46;;;;;;;20.27;8.07;;;;;;;15.00;100.00;102629.69;4990852;28;20050;-41
2024/01/28 08:28:12;;;;;;;15.93;6.75;;;;;;;15.89;100.00;102634.63;4992002;28;20141;-40
2024/01/28 08:30:39;;;;;;;16.63;6.60;;;;;;;16.28;100.00;102638.06;4987648;28;20054;-41
2024/01/28 08:33:05;;;;;;;13.93;5.82;;;;;;;16.48;100.00;102624.28;4986722;28;20085;-41
2024/01/28 08:35:32;;;;;;;16.40;6.05;;;;;;;16.65;100.00;102626.91;4987115;28;20076;-40
2024/01/28 08:37:58;;;;;;;15.88;6.25;;;;;;;16.80;100.00;102619.97;4987674;28;20137;-38
2024/01/28 08:40:25;;;;;;;16.38;5.82;;;;;;;16.96;100.00;102614.63;4988297;28;20057;-41
2024/01/28 08:42:52;;;;;;;16.52;6.03;;;;;;;16.91;100.00;102617.88;4988270;28;20066;-48
2024/01/28 08:45:19;;;;;;;15.38;5.90;;;;;;;17.01;100.00;102608.53;4987687;28;20065;-48
2024/01/28 08:47:46;;;;;;;13.43;4.85;;;;;;;17.02;100.00;102617.78;4991523;28;20057;-47
2024/01/28 08:50:13;;;;;;;15.45;5.47;;;;;;;17.05;100.00;102611.31;4984627;28;20054;-48
2024/01/28 08:52:41;;;;;;;13.20;5.07;;;;;;;17.08;100.00;102602.84;4981501;28;20070;-49
2024/01/28 08:55:09;;;;;;;13.45;5.07;;;;;;;17.10;100.00;102606.03;4987499;28;20101;-48
2024/01/28 08:57:35;;;;;;;14.15;5.13;;;;;;;17.11;100.00;102613.28;4989131;28;20050;-48
2024/01/28 09:00:05;;;;;;;10.90;4.47;;;;;;;17.12;100.00;102612.06;4990222;28;20093;-48
2024/01/28 09:02:35;;;;;;;14.27;4.70;;;;;;;17.15;100.00;102616.84;4988614;28;20046;-48
2024/01/28 09:05:03;;;;;;;11.73;4.82;;;;;;;17.17;100.00;102611.63;4986147;28;20141;-48
2024/01/28 09:07:30;;;;;;;11.20;4.50;;;;;;;17.17;100.00;102610.81;4984326;28;20042;-47
2024/01/28 09:09:57;;;;;;;11.32;4.25;;;;;;;17.17;100.00;102602.38;4986872;28;20046;-45
2024/01/28 09:12:24;;;;;;;11.20;4.13;;;;;;;17.19;100.00;102597.13;4993539;28;20046;-48
2024/01/28 09:14:51;;;;;;;9.70;4.10;;;;;;;17.19;100.00;102594.34;4990541;28;20101;-47
2024/01/28 09:17:17;;;;;;;8.18;3.72;;;;;;;17.20;100.00;102593.09;4988737;28;20153;-48
2024/01/28 09:19:45;;;;;;;13.43;4.68;;;;;;;17.19;100.00;102603.53;5003307;28;20062;-48
2024/01/28 09:22:12;;;;;;;12.15;4.53;;;;;;;17.21;100.00;102603.13;4998689;28;20042;-49
2024/01/28 09:24:39;;;;;;;12.55;4.55;;;;;;;17.21;100.00;102594.69;4990075;28;20584;-48
2024/01/28 09:27:06;;;;;;;14.98;4.18;;;;;;;17.21;100.00;102598.31;4989267;28;20050;-49
2024/01/28 09:29:32;;;;;;;11.70;4.20;;;;;;;17.22;100.00;102593.50;4987525;28;20042;-49
2024/01/28 09:32:00;;;;;;;17.73;4.90;;;;;;;17.22;100.00;102596.31;4988422;28;20133;-47
2024/01/28 09:34:28;;;;;;;10.50;4.38;;;;;;;17.22;100.00;102588.66;4989764;28;20062;-48
2024/01/28 09:36:55;;;;;;;10.13;4.15;;;;;;;17.25;100.00;102592.66;4989415;28;20569;-49
2024/01/28 09:39:21;;;;;;;12.82;3.83;;;;;;;17.25;100.00;102593.44;4990020;28;20129;-49
2024/01/28 09:42:29;;;;;;;9.98;4.40;;;;;;;17.26;100.00;102592.22;4989133;28;20039;-50
2024/01/28 09:44:58;;;;;;;9.40;3.85;;;;;;;17.28;100.00;102588.97;4944403;28;20114;-48
2024/01/28 09:47:24;;;;;;;8.80;3.92;;;;;;;17.26;100.00;102586.59;4985198;28;20077;-49
2024/01/28 09:49:51;;;;;;;10.18;3.97;;;;;;;17.27;100.00;102593.84;4990864;28;20137;-48
2024/01/28 09:52:18;;;;;;;10.30;4.07;;;;;;;17.28;100.00;102586.97;4994230;28;20050;-50
2024/01/28 09:54:45;;;;;;;13.57;4.57;;;;;;;17.30;100.00;102580.94;4993436;28;20089;-50
2024/01/28 09:57:12;;;;;;;11.13;4.40;;;;;;;17.32;100.00;102572.91;4985331;28;20050;-49
2024/01/28 09:59:38;;;;;;;13.02;3.78;;;;;;;17.33;100.00;102580.91;4995295;28;20078;-48
2024/01/28 10:02:06;;;;;;;10.55;4.15;;;;;;;17.35;100.00;102577.66;4993256;28;20099;-49
2024/01/28 10:04:33;;;;;;;10.15;4.32;;;;;;;17.35;100.00;102574.84;4988231;28;20132;-49
2024/01/28 10:07:01;;;;;;;13.95;4.75;;;;;;;17.34;100.00;102570.44;4992445;28;20069;-51
2024/01/28 10:09:31;;;;;;;9.90;3.90;;;;;;;17.36;100.00;102568.03;4988501;28;20046;-50
2024/01/28 10:12:02;;;;;;;8.70;3.53;;;;;;;17.38;100.00;102564.78;4989190;28;20054;-51
2024/01/28 10:14:28;;;;;;;10.38;3.80;;;;;;;17.37;100.00;102561.19;4986335;28;20053;-52
2024/01/28 10:16:57;;;;;;;11.95;3.58;;;;;;;17.38;100.00;102556.34;4991423;28;20128;-45
2024/01/28 10:19:23;;;;;;;8.55;3.45;;;;;;;17.41;100.00;102552.72;4993618;28;20497;-50
2024/01/28 10:21:51;;;;;;;8.13;3.15;;;;;;;17.41;100.00;102550.69;4996040;28;20042;-53
2024/01/28 10:24:18;;;;;;;9.73;3.38;;;;;;;17.42;100.00;102554.28;4991606;28;20078;-52
2024/01/28 10:26:45;;;;;;;12.10;4.18;;;;;;;17.42;100.00;102553.06;4996807;28;20512;-50
2024/01/28 10:29:13;;;;;;;10.48;3.70;;;;;;;17.41;100.00;102555.53;4991928;28;20046;-53
2024/01/28 10:31:40;;;;;;;8.30;3.97;;;;;;;17.42;100.00;102555.09;4986502;28;20513;-49
2024/01/28 10:34:08;;;;;;;7.32;3.15;;;;;;;17.42;100.00;102550.25;4989059;28;20046;-49
2024/01/28 10:36:36;;;;;;;9.70;3.60;;;;;;;17.42;100.00;102549.47;4989747;28;20058;-51
2024/01/28 10:39:04;;;;;;;7.90;3.75;;;;;;;17.43;100.00;102539.81;4993066;28;20042;-53
2024/01/28 10:41:32;;;;;;;11.90;3.72;;;;;;;17.41;100.00;102542.25;4992353;28;20053;-48
2024/01/28 10:44:06;;;;;;;9.48;3.75;;;;;;;17.43;100.00;102537.78;4994563;28;20062;-52
2024/01/28 10:46:39;;;;;;;8.60;3.30;;;;;;;17.43;100.00;102537.00;4990754;28;20073;-52
2024/01/28 10:49:08;;;;;;;8.60;3.45;;;;;;;17.43;100.00;102532.16;4991874;28;20050;-50
2024/01/28 10:51:36;;;;;;;10.90;3.67;;;;;;;17.44;100.00;102530.16;4993806;28;20058;-53
2024/01/28 10:54:05;;;;;;;9.90;3.58;;;;;;;17.46;100.00;102521.31;4993716;28;20049;-51
2024/01/28 10:56:32;;;;;;;9.77;3.17;;;;;;;17.47;100.00;102522.88;4991416;28;20645;-48
2024/01/28 10:58:59;;;;;;;5.80;2.90;;;;;;;17.47;100.00;102517.25;4990325;28;20112;-49
2024/01/28 11:01:27;;;;;;;9.55;3.58;;;;;;;17.46;100.00;102510.06;4992277;28;20055;-51
2024/01/28 11:03:56;;;;;;;7.72;3.13;;;;;;;17.43;100.00;102512.47;4992090;28;20140;-52
2024/01/28 11:06:27;;;;;;;8.60;3.10;;;;;;;17.43;100.00;102506.84;4991189;28;20133;-52
2024/01/28 11:08:56;;;;;;;10.88;3.55;;;;;;;17.46;100.00;102507.25;4992957;28;20042;-49
2024/01/28 11:11:24;;;;;;;11.73;3.78;;;;;;;17.48;100.00;102504.81;4991174;28;20054;-49